sensor_id;sensor_type;location;lat;lon;timestamp;temperature;humidity
16871;DHT22;8552;48.120;-1.456;2022-10-15T00:00:29;16.30;99.90
16871;DHT22;8552;48.120;-1.456;2022-10-15T00:02:55;16.40;99.90
16871;DHT22;8552;48.120;-1.456;2022-10-15T00:05:21;16.40;99.90
16871;DHT22;8552;48.120;-1.456;2022-10-15T00:07:47;16.40;99.90
16871;DHT22;8552;48.120;-1.456;2022-10-15T00:10:12;16.30;99.90
16871;DHT22;8552;48.120;-1.456;2022-10-15T00:12:39;16.40;99.90
16871;DHT22;8552;48.120;-1.456;2022-10-15T00:15:06;16.40;99.90
16871;DHT22;8552;48.120;-1.456;2022-10-15T00:17:33;16.50;99.90
16871;DHT22;8552;48.120;-1.456;2022-10-15T00:19:59;16.40;99.90
16871;DHT22;8552;48.120;-1.456;2022-10-15T00:22:24;16.40;99.90
16871;DHT22;8552;48.120;-1.456;2022-10-15T00:24:50;16.40;99.90
16871;DHT22;8552;48.120;-1.456;2022-10-15T00:27:16;16.40;99.90
16871;DHT22;8552;48.120;-1.456;2022-10-15T00:29:42;16.40;99.90
16871;DHT22;8552;48.120;-1.456;2022-10-15T00:32:08;16.40;99.90
16871;DHT22;8552;48.120;-1.456;2022-10-15T00:34:33;16.50;99.90
16871;DHT22;8552;48.120;-1.456;2022-10-15T00:37:00;16.50;99.90
16871;DHT22;8552;48.120;-1.456;2022-10-15T00:39:26;16.50;99.90
16871;DHT22;8552;48.120;-1.456;2022-10-15T00:41:52;16.50;99.90
16871;DHT22;8552;48.120;-1.456;2022-10-15T00:46:52;16.60;99.90
16871;DHT22;8552;48.120;-1.456;2022-10-15T00:49:38;16.60;99.90
16871;DHT22;8552;48.120;-1.456;2022-10-15T00:54:37;16.60;99.90
16871;DHT22;8552;48.120;-1.456;2022-10-15T00:57:04;16.60;99.90
16871;DHT22;8552;48.120;-1.456;2022-10-15T00:59:35;16.50;99.90
16871;DHT22;8552;48.120;-1.456;2022-10-15T01:02:01;16.60;99.90
16871;DHT22;8552;48.120;-1.456;2022-10-15T01:04:28;16.60;99.90
16871;DHT22;8552;48.120;-1.456;2022-10-15T01:06:55;16.60;99.90
16871;DHT22;8552;48.120;-1.456;2022-10-15T01:09:20;16.50;99.90
16871;DHT22;8552;48.120;-1.456;2022-10-15T01:11:49;16.60;99.90
16871;DHT22;8552;48.120;-1.456;2022-10-15T01:14:26;16.60;99.90
16871;DHT22;8552;48.120;-1.456;2022-10-15T01:27:44;16.60;99.90
16871;DHT22;8552;48.120;-1.456;2022-10-15T01:38:20;16.60;99.90
16871;DHT22;8552;48.120;-1.456;2022-10-15T01:46:35;16.50;99.90
16871;DHT22;8552;48.120;-1.456;2022-10-15T01:49:04;16.50;99.90
16871;DHT22;8552;48.120;-1.456;2022-10-15T01:51:33;16.60;99.90
16871;DHT22;8552;48.120;-1.456;2022-10-15T01:54:01;16.60;99.90
16871;DHT22;8552;48.120;-1.456;2022-10-15T01:56:27;16.60;99.90
16871;DHT22;8552;48.120;-1.456;2022-10-15T01:58:54;16.60;99.90
16871;DHT22;8552;48.120;-1.456;2022-10-15T02:01:21;16.60;99.90
16871;DHT22;8552;48.120;-1.456;2022-10-15T02:03:48;16.60;99.90
16871;DHT22;8552;48.120;-1.456;2022-10-15T02:06:36;16.50;99.90
16871;DHT22;8552;48.120;-1.456;2022-10-15T02:15:17;16.50;99.90
16871;DHT22;8552;48.120;-1.456;2022-10-15T02:20:50;16.50;99.90
16871;DHT22;8552;48.120;-1.456;2022-10-15T02:23:26;16.40;99.90
16871;DHT22;8552;48.120;-1.456;2022-10-15T02:25:57;16.40;99.90
16871;DHT22;8552;48.120;-1.456;2022-10-15T02:28:25;16.40;99.90
16871;DHT22;8552;48.120;-1.456;2022-10-15T02:30:53;16.40;99.90
16871;DHT22;8552;48.120;-1.456;2022-10-15T02:33:22;16.40;99.90
16871;DHT22;8552;48.120;-1.456;2022-10-15T02:35:49;16.40;99.90
16871;DHT22;8552;48.120;-1.456;2022-10-15T02:38:18;16.30;99.90
16871;DHT22;8552;48.120;-1.456;2022-10-15T02:40:46;16.30;99.90
16871;DHT22;8552;48.120;-1.456;2022-10-15T02:43:13;16.30;99.90
16871;DHT22;8552;48.120;-1.456;2022-10-15T02:45:39;16.30;99.90
16871;DHT22;8552;48.120;-1.456;2022-10-15T02:48:05;16.20;99.90
16871;DHT22;8552;48.120;-1.456;2022-10-15T02:50:31;16.20;99.90
16871;DHT22;8552;48.120;-1.456;2022-10-15T02:52:57;16.20;99.90
16871;DHT22;8552;48.120;-1.456;2022-10-15T02:55:22;16.20;99.90
16871;DHT22;8552;48.120;-1.456;2022-10-15T02:57:48;16.20;99.90
16871;DHT22;8552;48.120;-1.456;2022-10-15T03:00:14;16.10;99.90
16871;DHT22;8552;48.120;-1.456;2022-10-15T03:02:40;16.10;99.90
16871;DHT22;8552;48.120;-1.456;2022-10-15T03:05:06;16.10;99.90
16871;DHT22;8552;48.120;-1.456;2022-10-15T03:07:32;16.10;99.90
16871;DHT22;8552;48.120;-1.456;2022-10-15T03:09:57;16.00;99.90
16871;DHT22;8552;48.120;-1.456;2022-10-15T03:12:23;16.00;99.90
16871;DHT22;8552;48.120;-1.456;2022-10-15T03:14:51;16.00;99.90
16871;DHT22;8552;48.120;-1.456;2022-10-15T03:17:16;16.00;99.90
16871;DHT22;8552;48.120;-1.456;2022-10-15T03:19:42;16.00;99.90
16871;DHT22;8552;48.120;-1.456;2022-10-15T03:22:08;16.00;99.90
16871;DHT22;8552;48.120;-1.456;2022-10-15T03:24:34;16.00;99.90
16871;DHT22;8552;48.120;-1.456;2022-10-15T03:26:59;15.90;99.90
16871;DHT22;8552;48.120;-1.456;2022-10-15T03:29:25;15.90;99.90
16871;DHT22;8552;48.120;-1.456;2022-10-15T03:31:51;15.90;99.90
16871;DHT22;8552;48.120;-1.456;2022-10-15T03:34:17;15.90;99.90
16871;DHT22;8552;48.120;-1.456;2022-10-15T03:36:43;15.90;99.90
16871;DHT22;8552;48.120;-1.456;2022-10-15T03:39:10;15.80;99.90
16871;DHT22;8552;48.120;-1.456;2022-10-15T03:41:36;15.80;99.90
16871;DHT22;8552;48.120;-1.456;2022-10-15T03:44:04;15.80;99.90
16871;DHT22;8552;48.120;-1.456;2022-10-15T03:46:30;15.80;99.90
16871;DHT22;8552;48.120;-1.456;2022-10-15T03:48:56;15.80;99.90
16871;DHT22;8552;48.120;-1.456;2022-10-15T03:51:21;15.80;99.90
16871;DHT22;8552;48.120;-1.456;2022-10-15T03:53:47;15.80;99.90
16871;DHT22;8552;48.120;-1.456;2022-10-15T03:56:13;15.80;99.90
16871;DHT22;8552;48.120;-1.456;2022-10-15T03:58:39;15.80;99.90
16871;DHT22;8552;48.120;-1.456;2022-10-15T04:01:12;15.70;99.90
16871;DHT22;8552;48.120;-1.456;2022-10-15T04:03:38;15.70;99.90
16871;DHT22;8552;48.120;-1.456;2022-10-15T04:06:04;15.70;99.90
16871;DHT22;8552;48.120;-1.456;2022-10-15T04:08:31;15.70;99.90
16871;DHT22;8552;48.120;-1.456;2022-10-15T04:10:57;15.70;99.90
16871;DHT22;8552;48.120;-1.456;2022-10-15T04:13:24;15.70;99.90
16871;DHT22;8552;48.120;-1.456;2022-10-15T04:15:50;15.70;99.90
16871;DHT22;8552;48.120;-1.456;2022-10-15T04:18:15;15.70;99.90
16871;DHT22;8552;48.120;-1.456;2022-10-15T04:20:41;15.70;99.90
16871;DHT22;8552;48.120;-1.456;2022-10-15T04:23:08;15.70;99.90
16871;DHT22;8552;48.120;-1.456;2022-10-15T04:25:35;15.70;99.90
16871;DHT22;8552;48.120;-1.456;2022-10-15T04:28:02;15.70;99.90
16871;DHT22;8552;48.120;-1.456;2022-10-15T04:30:27;15.60;99.90
16871;DHT22;8552;48.120;-1.456;2022-10-15T04:32:53;15.60;99.90
16871;DHT22;8552;48.120;-1.456;2022-10-15T04:35:20;15.60;99.90
16871;DHT22;8552;48.120;-1.456;2022-10-15T04:37:45;15.60;99.90
16871;DHT22;8552;48.120;-1.456;2022-10-15T04:40:11;15.60;99.90
16871;DHT22;8552;48.120;-1.456;2022-10-15T04:42:38;15.60;99.90
16871;DHT22;8552;48.120;-1.456;2022-10-15T04:45:04;15.60;99.90
16871;DHT22;8552;48.120;-1.456;2022-10-15T04:47:30;15.60;99.90
16871;DHT22;8552;48.120;-1.456;2022-10-15T04:49:56;15.50;99.90
16871;DHT22;8552;48.120;-1.456;2022-10-15T04:52:22;15.50;99.90
16871;DHT22;8552;48.120;-1.456;2022-10-15T04:54:48;15.50;99.90
16871;DHT22;8552;48.120;-1.456;2022-10-15T04:57:13;15.50;99.90
16871;DHT22;8552;48.120;-1.456;2022-10-15T04:59:39;15.50;99.90
16871;DHT22;8552;48.120;-1.456;2022-10-15T05:02:05;15.50;99.90
16871;DHT22;8552;48.120;-1.456;2022-10-15T05:04:31;15.50;99.90
16871;DHT22;8552;48.120;-1.456;2022-10-15T05:06:56;15.40;99.90
16871;DHT22;8552;48.120;-1.456;2022-10-15T05:09:22;15.40;99.90
16871;DHT22;8552;48.120;-1.456;2022-10-15T05:11:48;15.40;99.90
16871;DHT22;8552;48.120;-1.456;2022-10-15T05:14:13;15.40;99.90
16871;DHT22;8552;48.120;-1.456;2022-10-15T05:16:39;15.40;99.90
16871;DHT22;8552;48.120;-1.456;2022-10-15T05:19:06;15.40;99.90
16871;DHT22;8552;48.120;-1.456;2022-10-15T05:21:33;15.30;99.90
16871;DHT22;8552;48.120;-1.456;2022-10-15T05:24:00;15.30;99.90
16871;DHT22;8552;48.120;-1.456;2022-10-15T05:26:27;15.20;99.90
16871;DHT22;8552;48.120;-1.456;2022-10-15T05:28:55;15.20;99.90
16871;DHT22;8552;48.120;-1.456;2022-10-15T05:31:22;15.10;99.90
16871;DHT22;8552;48.120;-1.456;2022-10-15T05:33:50;15.10;99.90
16871;DHT22;8552;48.120;-1.456;2022-10-15T05:38:48;15.00;99.90
16871;DHT22;8552;48.120;-1.456;2022-10-15T05:41:15;15.00;99.90
16871;DHT22;8552;48.120;-1.456;2022-10-15T05:43:40;15.00;99.90
16871;DHT22;8552;48.120;-1.456;2022-10-15T05:46:06;15.00;99.90
16871;DHT22;8552;48.120;-1.456;2022-10-15T05:48:32;15.00;99.90
16871;DHT22;8552;48.120;-1.456;2022-10-15T05:51:03;15.00;99.90
16871;DHT22;8552;48.120;-1.456;2022-10-15T05:53:29;15.00;99.90
16871;DHT22;8552;48.120;-1.456;2022-10-15T05:55:56;15.00;99.90
16871;DHT22;8552;48.120;-1.456;2022-10-15T05:58:26;15.00;99.90
16871;DHT22;8552;48.120;-1.456;2022-10-15T06:01:00;15.00;99.90
16871;DHT22;8552;48.120;-1.456;2022-10-15T06:03:27;15.00;99.90
16871;DHT22;8552;48.120;-1.456;2022-10-15T06:05:53;15.00;99.90
16871;DHT22;8552;48.120;-1.456;2022-10-15T06:08:19;15.00;99.90
16871;DHT22;8552;48.120;-1.456;2022-10-15T06:10:46;14.90;99.90
16871;DHT22;8552;48.120;-1.456;2022-10-15T06:13:12;14.90;99.90
16871;DHT22;8552;48.120;-1.456;2022-10-15T06:15:42;14.90;99.90
16871;DHT22;8552;48.120;-1.456;2022-10-15T06:18:09;14.90;99.90
16871;DHT22;8552;48.120;-1.456;2022-10-15T06:20:35;14.80;99.90
16871;DHT22;8552;48.120;-1.456;2022-10-15T06:23:03;14.80;99.90
16871;DHT22;8552;48.120;-1.456;2022-10-15T06:25:28;14.70;99.90
16871;DHT22;8552;48.120;-1.456;2022-10-15T06:27:59;14.70;99.90
16871;DHT22;8552;48.120;-1.456;2022-10-15T06:30:25;14.60;99.90
16871;DHT22;8552;48.120;-1.456;2022-10-15T06:32:52;14.60;99.90
16871;DHT22;8552;48.120;-1.456;2022-10-15T06:35:19;14.50;99.90
16871;DHT22;8552;48.120;-1.456;2022-10-15T06:37:45;14.50;99.90
16871;DHT22;8552;48.120;-1.456;2022-10-15T06:40:12;14.40;99.90
16871;DHT22;8552;48.120;-1.456;2022-10-15T06:42:38;14.40;99.90
16871;DHT22;8552;48.120;-1.456;2022-10-15T06:45:05;14.40;99.90
16871;DHT22;8552;48.120;-1.456;2022-10-15T06:47:31;14.40;99.90
16871;DHT22;8552;48.120;-1.456;2022-10-15T06:49:57;14.40;99.90
16871;DHT22;8552;48.120;-1.456;2022-10-15T06:52:23;14.40;99.90
16871;DHT22;8552;48.120;-1.456;2022-10-15T06:54:49;14.40;99.90
16871;DHT22;8552;48.120;-1.456;2022-10-15T06:57:15;14.40;99.90
16871;DHT22;8552;48.120;-1.456;2022-10-15T06:59:41;14.40;99.90
16871;DHT22;8552;48.120;-1.456;2022-10-15T07:02:10;14.40;99.90
16871;DHT22;8552;48.120;-1.456;2022-10-15T07:04:36;14.40;99.90
16871;DHT22;8552;48.120;-1.456;2022-10-15T07:07:02;14.30;99.90
16871;DHT22;8552;48.120;-1.456;2022-10-15T07:09:28;14.30;99.90
16871;DHT22;8552;48.120;-1.456;2022-10-15T07:11:53;14.30;99.90
16871;DHT22;8552;48.120;-1.456;2022-10-15T07:14:19;14.20;99.90
16871;DHT22;8552;48.120;-1.456;2022-10-15T07:16:45;14.20;99.90
16871;DHT22;8552;48.120;-1.456;2022-10-15T07:19:10;14.20;99.90
16871;DHT22;8552;48.120;-1.456;2022-10-15T07:21:36;14.20;99.90
16871;DHT22;8552;48.120;-1.456;2022-10-15T07:24:01;14.10;99.90
16871;DHT22;8552;48.120;-1.456;2022-10-15T07:26:27;14.10;99.90
16871;DHT22;8552;48.120;-1.456;2022-10-15T07:28:54;14.10;99.90
16871;DHT22;8552;48.120;-1.456;2022-10-15T07:31:20;14.10;99.90
16871;DHT22;8552;48.120;-1.456;2022-10-15T07:33:45;14.00;99.90
16871;DHT22;8552;48.120;-1.456;2022-10-15T07:36:11;14.00;99.90
16871;DHT22;8552;48.120;-1.456;2022-10-15T07:38:37;14.00;99.90
16871;DHT22;8552;48.120;-1.456;2022-10-15T07:41:08;13.90;99.90
16871;DHT22;8552;48.120;-1.456;2022-10-15T07:43:34;13.90;99.90
16871;DHT22;8552;48.120;-1.456;2022-10-15T07:46:01;13.90;99.90
16871;DHT22;8552;48.120;-1.456;2022-10-15T07:48:27;13.80;99.90
16871;DHT22;8552;48.120;-1.456;2022-10-15T07:51:00;13.80;99.90
16871;DHT22;8552;48.120;-1.456;2022-10-15T07:53:27;13.80;99.90
16871;DHT22;8552;48.120;-1.456;2022-10-15T07:55:52;13.80;99.90
16871;DHT22;8552;48.120;-1.456;2022-10-15T07:58:19;13.80;99.90
16871;DHT22;8552;48.120;-1.456;2022-10-15T08:00:44;13.80;99.90
16871;DHT22;8552;48.120;-1.456;2022-10-15T08:03:10;13.80;99.90
16871;DHT22;8552;48.120;-1.456;2022-10-15T08:05:36;13.70;99.90
16871;DHT22;8552;48.120;-1.456;2022-10-15T08:08:01;13.80;99.90
16871;DHT22;8552;48.120;-1.456;2022-10-15T08:10:27;13.80;99.90
16871;DHT22;8552;48.120;-1.456;2022-10-15T08:12:53;13.80;99.90
16871;DHT22;8552;48.120;-1.456;2022-10-15T08:15:19;13.80;99.90
16871;DHT22;8552;48.120;-1.456;2022-10-15T08:17:45;13.80;99.90
16871;DHT22;8552;48.120;-1.456;2022-10-15T08:20:10;13.90;99.90
16871;DHT22;8552;48.120;-1.456;2022-10-15T08:22:36;14.00;99.90
16871;DHT22;8552;48.120;-1.456;2022-10-15T08:25:02;14.00;99.90
16871;DHT22;8552;48.120;-1.456;2022-10-15T08:27:28;14.00;99.90
16871;DHT22;8552;48.120;-1.456;2022-10-15T08:29:53;14.10;99.90
16871;DHT22;8552;48.120;-1.456;2022-10-15T08:32:19;14.20;99.90
16871;DHT22;8552;48.120;-1.456;2022-10-15T08:34:44;14.20;99.90
16871;DHT22;8552;48.120;-1.456;2022-10-15T08:37:10;14.30;99.90
16871;DHT22;8552;48.120;-1.456;2022-10-15T08:39:36;14.40;99.90
16871;DHT22;8552;48.120;-1.456;2022-10-15T08:42:04;14.40;99.90
16871;DHT22;8552;48.120;-1.456;2022-10-15T08:44:38;14.50;99.90
16871;DHT22;8552;48.120;-1.456;2022-10-15T08:47:08;14.60;99.90
16871;DHT22;8552;48.120;-1.456;2022-10-15T08:49:47;14.70;99.90
16871;DHT22;8552;48.120;-1.456;2022-10-15T08:54:59;14.90;99.90
16871;DHT22;8552;48.120;-1.456;2022-10-15T08:57:42;14.90;99.90
16871;DHT22;8552;48.120;-1.456;2022-10-15T09:00:22;15.00;99.90
16871;DHT22;8552;48.120;-1.456;2022-10-15T09:02:59;15.00;99.90
16871;DHT22;8552;48.120;-1.456;2022-10-15T09:05:52;15.10;99.90
16871;DHT22;8552;48.120;-1.456;2022-10-15T09:08:30;15.10;99.90
16871;DHT22;8552;48.120;-1.456;2022-10-15T09:11:32;15.20;99.90
16871;DHT22;8552;48.120;-1.456;2022-10-15T09:13:53;15.20;99.90
16871;DHT22;8552;48.120;-1.456;2022-10-15T09:16:24;15.20;99.90
16871;DHT22;8552;48.120;-1.456;2022-10-15T09:18:52;15.20;99.90
16871;DHT22;8552;48.120;-1.456;2022-10-15T09:21:23;15.30;99.90
16871;DHT22;8552;48.120;-1.456;2022-10-15T09:23:51;15.30;99.90
16871;DHT22;8552;48.120;-1.456;2022-10-15T09:34:44;15.40;99.90
16871;DHT22;8552;48.120;-1.456;2022-10-15T09:37:27;15.50;99.90
16871;DHT22;8552;48.120;-1.456;2022-10-15T09:42:38;15.70;99.90
16871;DHT22;8552;48.120;-1.456;2022-10-15T09:45:09;15.80;99.90
16871;DHT22;8552;48.120;-1.456;2022-10-15T09:47:39;15.80;99.90
16871;DHT22;8552;48.120;-1.456;2022-10-15T09:50:07;15.90;99.90
16871;DHT22;8552;48.120;-1.456;2022-10-15T09:53:03;16.00;99.90
16871;DHT22;8552;48.120;-1.456;2022-10-15T09:55:51;16.00;99.90
16871;DHT22;8552;48.120;-1.456;2022-10-15T09:58:22;16.10;99.90
16871;DHT22;8552;48.120;-1.456;2022-10-15T10:01:02;16.10;99.90
16871;DHT22;8552;48.120;-1.456;2022-10-15T10:03:30;16.20;99.90
16871;DHT22;8552;48.120;-1.456;2022-10-15T10:06:04;16.20;99.90
16871;DHT22;8552;48.120;-1.456;2022-10-15T10:08:37;16.30;99.90
16871;DHT22;8552;48.120;-1.456;2022-10-15T10:11:06;16.30;99.90
16871;DHT22;8552;48.120;-1.456;2022-10-15T10:13:56;16.40;99.90
16871;DHT22;8552;48.120;-1.456;2022-10-15T10:16:21;16.50;99.90
16871;DHT22;8552;48.120;-1.456;2022-10-15T10:19:05;16.50;99.90
16871;DHT22;8552;48.120;-1.456;2022-10-15T10:21:36;16.60;99.90
16871;DHT22;8552;48.120;-1.456;2022-10-15T10:24:28;16.60;99.90
16871;DHT22;8552;48.120;-1.456;2022-10-15T10:27:00;16.50;99.90
16871;DHT22;8552;48.120;-1.456;2022-10-15T10:29:27;16.40;99.90
16871;DHT22;8552;48.120;-1.456;2022-10-15T10:31:54;16.40;99.90
16871;DHT22;8552;48.120;-1.456;2022-10-15T10:34:27;16.40;99.90
16871;DHT22;8552;48.120;-1.456;2022-10-15T10:36:54;16.40;99.90
16871;DHT22;8552;48.120;-1.456;2022-10-15T10:39:28;16.40;99.90
16871;DHT22;8552;48.120;-1.456;2022-10-15T10:44:32;16.30;99.90
16871;DHT22;8552;48.120;-1.456;2022-10-15T10:52:23;16.20;99.90
16871;DHT22;8552;48.120;-1.456;2022-10-15T10:57:48;15.80;99.90
16871;DHT22;8552;48.120;-1.456;2022-10-15T11:03:39;15.70;99.90
16871;DHT22;8552;48.120;-1.456;2022-10-15T11:08:50;15.60;99.90
16871;DHT22;8552;48.120;-1.456;2022-10-15T11:17:16;16.00;99.90
16871;DHT22;8552;48.120;-1.456;2022-10-15T11:20:05;16.10;99.90
16871;DHT22;8552;48.120;-1.456;2022-10-15T11:22:55;16.10;99.90
16871;DHT22;8552;48.120;-1.456;2022-10-15T11:25:41;16.10;99.90
16871;DHT22;8552;48.120;-1.456;2022-10-15T11:28:42;16.20;99.90
16871;DHT22;8552;48.120;-1.456;2022-10-15T11:34:08;16.10;99.90
16871;DHT22;8552;48.120;-1.456;2022-10-15T11:42:57;16.20;99.90
16871;DHT22;8552;48.120;-1.456;2022-10-15T11:48:17;16.40;99.90
16871;DHT22;8552;48.120;-1.456;2022-10-15T11:50:51;16.50;99.90
16871;DHT22;8552;48.120;-1.456;2022-10-15T11:56:21;16.60;99.90
16871;DHT22;8552;48.120;-1.456;2022-10-15T11:59:02;16.70;99.90
16871;DHT22;8552;48.120;-1.456;2022-10-15T12:01:42;16.80;99.90
16871;DHT22;8552;48.120;-1.456;2022-10-15T12:04:25;16.90;99.90
16871;DHT22;8552;48.120;-1.456;2022-10-15T12:06:56;17.00;99.90
16871;DHT22;8552;48.120;-1.456;2022-10-15T12:09:30;16.90;99.90
16871;DHT22;8552;48.120;-1.456;2022-10-15T12:17:39;17.30;99.90
16871;DHT22;8552;48.120;-1.456;2022-10-15T12:20:11;17.40;99.90
16871;DHT22;8552;48.120;-1.456;2022-10-15T12:22:54;17.40;99.90
16871;DHT22;8552;48.120;-1.456;2022-10-15T12:28:13;17.50;99.90
16871;DHT22;8552;48.120;-1.456;2022-10-15T12:30:41;17.50;99.90
16871;DHT22;8552;48.120;-1.456;2022-10-15T12:33:36;17.50;99.90
16871;DHT22;8552;48.120;-1.456;2022-10-15T12:36:21;17.40;99.90
16871;DHT22;8552;48.120;-1.456;2022-10-15T12:39:02;17.50;99.90
16871;DHT22;8552;48.120;-1.456;2022-10-15T12:41:49;17.50;99.90
16871;DHT22;8552;48.120;-1.456;2022-10-15T12:44:22;17.40;99.90
16871;DHT22;8552;48.120;-1.456;2022-10-15T12:46:49;17.60;99.90
16871;DHT22;8552;48.120;-1.456;2022-10-15T12:52:00;18.40;99.90
16871;DHT22;8552;48.120;-1.456;2022-10-15T12:54:40;18.50;99.90
16871;DHT22;8552;48.120;-1.456;2022-10-15T12:59:59;19.10;99.90
16871;DHT22;8552;48.120;-1.456;2022-10-15T13:02:45;19.20;99.90
16871;DHT22;8552;48.120;-1.456;2022-10-15T13:05:29;19.40;99.90
16871;DHT22;8552;48.120;-1.456;2022-10-15T13:07:58;19.60;99.90
16871;DHT22;8552;48.120;-1.456;2022-10-15T13:10:32;19.40;99.90
16871;DHT22;8552;48.120;-1.456;2022-10-15T13:13:04;19.40;99.90
16871;DHT22;8552;48.120;-1.456;2022-10-15T13:15:31;19.30;99.90
16871;DHT22;8552;48.120;-1.456;2022-10-15T13:18:05;19.00;99.90
16871;DHT22;8552;48.120;-1.456;2022-10-15T13:20:35;19.10;99.90
16871;DHT22;8552;48.120;-1.456;2022-10-15T13:23:24;19.30;99.90
16871;DHT22;8552;48.120;-1.456;2022-10-15T13:28:38;19.50;99.90
16871;DHT22;8552;48.120;-1.456;2022-10-15T13:31:15;19.60;99.90
16871;DHT22;8552;48.120;-1.456;2022-10-15T13:33:44;19.50;99.90
16871;DHT22;8552;48.120;-1.456;2022-10-15T13:36:25;19.40;99.90
16871;DHT22;8552;48.120;-1.456;2022-10-15T13:38:58;19.20;99.90
16871;DHT22;8552;48.120;-1.456;2022-10-15T13:41:27;19.00;99.90
16871;DHT22;8552;48.120;-1.456;2022-10-15T13:43:53;18.90;99.90
16871;DHT22;8552;48.120;-1.456;2022-10-15T13:46:24;18.90;99.90
16871;DHT22;8552;48.120;-1.456;2022-10-15T13:48:59;18.80;99.90
16871;DHT22;8552;48.120;-1.456;2022-10-15T13:51:41;18.70;99.90
16871;DHT22;8552;48.120;-1.456;2022-10-15T13:54:20;18.70;99.90
16871;DHT22;8552;48.120;-1.456;2022-10-15T13:56:54;18.70;99.90
16871;DHT22;8552;48.120;-1.456;2022-10-15T13:59:23;18.50;99.90
16871;DHT22;8552;48.120;-1.456;2022-10-15T14:01:59;18.60;99.90
16871;DHT22;8552;48.120;-1.456;2022-10-15T14:04:27;18.80;99.90
16871;DHT22;8552;48.120;-1.456;2022-10-15T14:07:00;19.10;99.90
16871;DHT22;8552;48.120;-1.456;2022-10-15T14:09:32;19.30;99.90
16871;DHT22;8552;48.120;-1.456;2022-10-15T14:11:58;19.30;99.90
16871;DHT22;8552;48.120;-1.456;2022-10-15T14:14:30;19.50;99.90
16871;DHT22;8552;48.120;-1.456;2022-10-15T14:16:58;19.70;99.90
16871;DHT22;8552;48.120;-1.456;2022-10-15T14:19:25;19.70;99.90
16871;DHT22;8552;48.120;-1.456;2022-10-15T14:21:55;19.70;99.90
16871;DHT22;8552;48.120;-1.456;2022-10-15T14:24:31;19.80;99.90
16871;DHT22;8552;48.120;-1.456;2022-10-15T14:27:23;19.60;99.90
16871;DHT22;8552;48.120;-1.456;2022-10-15T14:29:51;19.30;99.90
16871;DHT22;8552;48.120;-1.456;2022-10-15T14:32:26;19.20;99.90
16871;DHT22;8552;48.120;-1.456;2022-10-15T14:34:54;19.10;99.90
16871;DHT22;8552;48.120;-1.456;2022-10-15T14:40:10;19.10;99.90
16871;DHT22;8552;48.120;-1.456;2022-10-15T14:42:43;19.20;99.90
16871;DHT22;8552;48.120;-1.456;2022-10-15T14:47:46;19.00;99.90
16871;DHT22;8552;48.120;-1.456;2022-10-15T14:50:13;18.80;99.90
16871;DHT22;8552;48.120;-1.456;2022-10-15T14:52:44;18.70;99.90
16871;DHT22;8552;48.120;-1.456;2022-10-15T14:57:56;18.60;99.90
16871;DHT22;8552;48.120;-1.456;2022-10-15T15:00:27;18.60;99.90
16871;DHT22;8552;48.120;-1.456;2022-10-15T15:02:58;18.50;99.90
16871;DHT22;8552;48.120;-1.456;2022-10-15T15:05:25;18.50;99.90
16871;DHT22;8552;48.120;-1.456;2022-10-15T15:07:52;18.40;99.90
16871;DHT22;8552;48.120;-1.456;2022-10-15T15:10:18;18.40;99.90
16871;DHT22;8552;48.120;-1.456;2022-10-15T15:12:49;18.30;99.90
16871;DHT22;8552;48.120;-1.456;2022-10-15T15:15:17;18.30;99.90
16871;DHT22;8552;48.120;-1.456;2022-10-15T15:17:43;18.30;99.90
16871;DHT22;8552;48.120;-1.456;2022-10-15T15:20:09;18.20;99.90
16871;DHT22;8552;48.120;-1.456;2022-10-15T15:22:36;18.20;99.90
16871;DHT22;8552;48.120;-1.456;2022-10-15T15:25:17;18.10;99.90
16871;DHT22;8552;48.120;-1.456;2022-10-15T15:27:43;18.10;99.90
16871;DHT22;8552;48.120;-1.456;2022-10-15T15:30:20;18.00;99.90
16871;DHT22;8552;48.120;-1.456;2022-10-15T15:32:47;17.90;99.90
16871;DHT22;8552;48.120;-1.456;2022-10-15T15:35:36;17.70;99.90
16871;DHT22;8552;48.120;-1.456;2022-10-15T15:38:06;17.70;99.90
16871;DHT22;8552;48.120;-1.456;2022-10-15T15:40:33;17.60;99.90
16871;DHT22;8552;48.120;-1.456;2022-10-15T15:42:59;17.60;99.90
16871;DHT22;8552;48.120;-1.456;2022-10-15T15:45:26;17.50;99.90
16871;DHT22;8552;48.120;-1.456;2022-10-15T15:47:52;17.50;99.90
16871;DHT22;8552;48.120;-1.456;2022-10-15T15:50:20;17.50;99.90
16871;DHT22;8552;48.120;-1.456;2022-10-15T15:52:46;17.40;99.90
16871;DHT22;8552;48.120;-1.456;2022-10-15T15:55:13;17.20;99.90
16871;DHT22;8552;48.120;-1.456;2022-10-15T15:57:39;17.20;99.90
16871;DHT22;8552;48.120;-1.456;2022-10-15T16:00:07;17.20;99.90
16871;DHT22;8552;48.120;-1.456;2022-10-15T16:02:34;17.20;99.90
16871;DHT22;8552;48.120;-1.456;2022-10-15T16:05:00;17.30;99.90
16871;DHT22;8552;48.120;-1.456;2022-10-15T16:07:28;17.30;99.90
16871;DHT22;8552;48.120;-1.456;2022-10-15T16:09:54;17.20;99.90
16871;DHT22;8552;48.120;-1.456;2022-10-15T16:12:20;17.20;99.90
16871;DHT22;8552;48.120;-1.456;2022-10-15T16:14:46;17.20;99.90
16871;DHT22;8552;48.120;-1.456;2022-10-15T16:17:11;17.20;99.90
16871;DHT22;8552;48.120;-1.456;2022-10-15T16:19:39;17.10;99.90
16871;DHT22;8552;48.120;-1.456;2022-10-15T16:22:05;17.00;99.90
16871;DHT22;8552;48.120;-1.456;2022-10-15T16:24:33;16.90;99.90
16871;DHT22;8552;48.120;-1.456;2022-10-15T16:26:59;16.80;99.90
16871;DHT22;8552;48.120;-1.456;2022-10-15T16:29:32;16.70;99.90
16871;DHT22;8552;48.120;-1.456;2022-10-15T16:32:05;16.70;99.90
16871;DHT22;8552;48.120;-1.456;2022-10-15T16:34:31;16.60;99.90
16871;DHT22;8552;48.120;-1.456;2022-10-15T16:36:57;16.60;99.90
16871;DHT22;8552;48.120;-1.456;2022-10-15T16:39:22;16.50;99.90
16871;DHT22;8552;48.120;-1.456;2022-10-15T16:41:49;16.50;99.90
16871;DHT22;8552;48.120;-1.456;2022-10-15T16:44:15;16.40;99.90
16871;DHT22;8552;48.120;-1.456;2022-10-15T16:46:41;16.40;99.90
16871;DHT22;8552;48.120;-1.456;2022-10-15T16:49:12;16.30;99.90
16871;DHT22;8552;48.120;-1.456;2022-10-15T16:51:40;16.20;99.90
16871;DHT22;8552;48.120;-1.456;2022-10-15T16:54:12;16.20;99.90
16871;DHT22;8552;48.120;-1.456;2022-10-15T16:56:38;16.10;99.90
16871;DHT22;8552;48.120;-1.456;2022-10-15T16:59:04;16.00;99.90
16871;DHT22;8552;48.120;-1.456;2022-10-15T17:01:30;16.00;99.90
16871;DHT22;8552;48.120;-1.456;2022-10-15T17:03:57;15.90;99.90
16871;DHT22;8552;48.120;-1.456;2022-10-15T17:06:25;15.90;99.90
16871;DHT22;8552;48.120;-1.456;2022-10-15T17:08:55;15.80;99.90
16871;DHT22;8552;48.120;-1.456;2022-10-15T17:13:49;15.70;99.90
16871;DHT22;8552;48.120;-1.456;2022-10-15T17:16:18;15.60;99.90
16871;DHT22;8552;48.120;-1.456;2022-10-15T17:18:45;15.60;99.90
16871;DHT22;8552;48.120;-1.456;2022-10-15T17:21:13;15.50;99.90
16871;DHT22;8552;48.120;-1.456;2022-10-15T17:23:39;15.50;99.90
16871;DHT22;8552;48.120;-1.456;2022-10-15T17:26:08;15.40;99.90
16871;DHT22;8552;48.120;-1.456;2022-10-15T17:28:34;15.30;99.90
16871;DHT22;8552;48.120;-1.456;2022-10-15T17:31:02;15.30;99.90
16871;DHT22;8552;48.120;-1.456;2022-10-15T17:33:28;15.20;99.90
16871;DHT22;8552;48.120;-1.456;2022-10-15T17:35:54;15.20;99.90
16871;DHT22;8552;48.120;-1.456;2022-10-15T17:38:20;15.10;99.90
16871;DHT22;8552;48.120;-1.456;2022-10-15T17:40:46;15.10;99.90
16871;DHT22;8552;48.120;-1.456;2022-10-15T17:43:12;15.10;99.90